sensor_id;sensor_type;location;lat;lon;timestamp;P1;durP1;ratioP1;P2;durP2;ratioP2
22924;SDS011;11628;51.072;3.712;2023-05-10T00:00:07;26.33;;;15.20;;
22924;SDS011;11628;51.072;3.712;2023-05-10T00:02:34;26.05;;;17.10;;
22924;SDS011;11628;51.072;3.712;2023-05-10T00:04:59;27.15;;;15.88;;
22924;SDS011;11628;51.072;3.712;2023-05-10T00:07:26;27.30;;;17.10;;
22924;SDS011;11628;51.072;3.712;2023-05-10T00:09:52;29.90;;;18.52;;
22924;SDS011;11628;51.072;3.712;2023-05-10T00:12:18;29.00;;;18.95;;
22924;SDS011;11628;51.072;3.712;2023-05-10T00:14:44;30.75;;;18.27;;
22924;SDS011;11628;51.072;3.712;2023-05-10T00:17:10;26.58;;;17.48;;
22924;SDS011;11628;51.072;3.712;2023-05-10T00:19:36;25.30;;;17.75;;
22924;SDS011;11628;51.072;3.712;2023-05-10T00:22:01;26.90;;;17.52;;
22924;SDS011;11628;51.072;3.712;2023-05-10T00:24:28;28.15;;;18.40;;
22924;SDS011;11628;51.072;3.712;2023-05-10T00:26:53;31.20;;;18.15;;
22924;SDS011;11628;51.072;3.712;2023-05-10T00:29:19;32.75;;;19.52;;
22924;SDS011;11628;51.072;3.712;2023-05-10T00:31:45;26.17;;;17.92;;
22924;SDS011;11628;51.072;3.712;2023-05-10T00:34:10;28.95;;;19.02;;
22924;SDS011;11628;51.072;3.712;2023-05-10T00:36:36;29.35;;;20.30;;
22924;SDS011;11628;51.072;3.712;2023-05-10T00:39:02;31.50;;;21.20;;
22924;SDS011;11628;51.072;3.712;2023-05-10T00:41:28;35.28;;;21.30;;
22924;SDS011;11628;51.072;3.712;2023-05-10T00:43:57;36.65;;;23.10;;
22924;SDS011;11628;51.072;3.712;2023-05-10T00:46:23;42.72;;;24.33;;
22924;SDS011;11628;51.072;3.712;2023-05-10T00:48:49;38.55;;;24.42;;
22924;SDS011;11628;51.072;3.712;2023-05-10T00:51:15;39.97;;;24.92;;
22924;SDS011;11628;51.072;3.712;2023-05-10T00:53:41;37.92;;;25.55;;
22924;SDS011;11628;51.072;3.712;2023-05-10T00:56:10;42.50;;;24.50;;
22924;SDS011;11628;51.072;3.712;2023-05-10T00:58:36;40.75;;;24.38;;
22924;SDS011;11628;51.072;3.712;2023-05-10T01:01:02;41.83;;;25.27;;
22924;SDS011;11628;51.072;3.712;2023-05-10T01:03:27;40.97;;;25.33;;
22924;SDS011;11628;51.072;3.712;2023-05-10T01:05:53;42.00;;;26.52;;
22924;SDS011;11628;51.072;3.712;2023-05-10T01:08:20;43.72;;;25.40;;
22924;SDS011;11628;51.072;3.712;2023-05-10T01:10:46;40.38;;;26.73;;
22924;SDS011;11628;51.072;3.712;2023-05-10T01:13:14;43.60;;;26.65;;
22924;SDS011;11628;51.072;3.712;2023-05-10T01:15:45;41.15;;;25.98;;
22924;SDS011;11628;51.072;3.712;2023-05-10T01:18:11;39.88;;;25.35;;
22924;SDS011;11628;51.072;3.712;2023-05-10T01:20:40;42.70;;;26.70;;
22924;SDS011;11628;51.072;3.712;2023-05-10T01:23:12;43.15;;;27.02;;
22924;SDS011;11628;51.072;3.712;2023-05-10T01:26:25;38.03;;;26.00;;
22924;SDS011;11628;51.072;3.712;2023-05-10T01:29:11;40.90;;;26.35;;
22924;SDS011;11628;51.072;3.712;2023-05-10T01:32:21;38.83;;;26.13;;
22924;SDS011;11628;51.072;3.712;2023-05-10T01:34:59;38.83;;;26.40;;
22924;SDS011;11628;51.072;3.712;2023-05-10T01:37:52;37.83;;;25.92;;
22924;SDS011;11628;51.072;3.712;2023-05-10T01:40:19;35.78;;;25.10;;
22924;SDS011;11628;51.072;3.712;2023-05-10T01:42:53;38.90;;;25.48;;
22924;SDS011;11628;51.072;3.712;2023-05-10T01:45:41;37.95;;;27.92;;
22924;SDS011;11628;51.072;3.712;2023-05-10T01:48:20;36.10;;;25.08;;
22924;SDS011;11628;51.072;3.712;2023-05-10T01:50:48;35.30;;;23.45;;
22924;SDS011;11628;51.072;3.712;2023-05-10T01:53:17;32.38;;;23.77;;
22924;SDS011;11628;51.072;3.712;2023-05-10T01:55:53;35.28;;;25.52;;
22924;SDS011;11628;51.072;3.712;2023-05-10T01:58:31;38.30;;;25.92;;
22924;SDS011;11628;51.072;3.712;2023-05-10T02:00:59;35.20;;;22.83;;
22924;SDS011;11628;51.072;3.712;2023-05-10T02:03:28;36.70;;;23.88;;
22924;SDS011;11628;51.072;3.712;2023-05-10T02:05:56;37.67;;;24.30;;
22924;SDS011;11628;51.072;3.712;2023-05-10T02:08:22;37.42;;;25.95;;
22924;SDS011;11628;51.072;3.712;2023-05-10T02:10:50;39.35;;;25.60;;
22924;SDS011;11628;51.072;3.712;2023-05-10T02:13:19;40.65;;;25.92;;
22924;SDS011;11628;51.072;3.712;2023-05-10T02:15:46;38.47;;;24.90;;
22924;SDS011;11628;51.072;3.712;2023-05-10T02:18:14;39.72;;;24.98;;
22924;SDS011;11628;51.072;3.712;2023-05-10T02:20:40;40.05;;;26.83;;
22924;SDS011;11628;51.072;3.712;2023-05-10T02:23:08;35.83;;;24.92;;
22924;SDS011;11628;51.072;3.712;2023-05-10T02:25:34;39.95;;;26.00;;
22924;SDS011;11628;51.072;3.712;2023-05-10T02:28:03;36.83;;;25.50;;
22924;SDS011;11628;51.072;3.712;2023-05-10T02:30:31;36.03;;;24.50;;
22924;SDS011;11628;51.072;3.712;2023-05-10T02:32:59;37.20;;;25.73;;
22924;SDS011;11628;51.072;3.712;2023-05-10T02:35:27;35.45;;;25.17;;
22924;SDS011;11628;51.072;3.712;2023-05-10T02:37:53;42.03;;;24.67;;
22924;SDS011;11628;51.072;3.712;2023-05-10T02:40:20;35.60;;;24.63;;
22924;SDS011;11628;51.072;3.712;2023-05-10T02:42:47;34.63;;;24.83;;
22924;SDS011;11628;51.072;3.712;2023-05-10T02:45:17;37.67;;;24.80;;
22924;SDS011;11628;51.072;3.712;2023-05-10T02:47:45;38.30;;;25.25;;
22924;SDS011;11628;51.072;3.712;2023-05-10T02:50:11;35.53;;;24.90;;
22924;SDS011;11628;51.072;3.712;2023-05-10T02:52:44;37.75;;;23.80;;
22924;SDS011;11628;51.072;3.712;2023-05-10T02:55:14;34.50;;;23.45;;
22924;SDS011;11628;51.072;3.712;2023-05-10T02:58:02;34.08;;;22.92;;
22924;SDS011;11628;51.072;3.712;2023-05-10T03:00:27;34.38;;;23.27;;
22924;SDS011;11628;51.072;3.712;2023-05-10T03:02:53;35.05;;;23.83;;
22924;SDS011;11628;51.072;3.712;2023-05-10T03:05:19;32.72;;;22.05;;
22924;SDS011;11628;51.072;3.712;2023-05-10T03:07:45;33.08;;;21.75;;
22924;SDS011;11628;51.072;3.712;2023-05-10T03:10:11;32.03;;;22.75;;
22924;SDS011;11628;51.072;3.712;2023-05-10T03:18:12;28.90;;;22.08;;
22924;SDS011;11628;51.072;3.712;2023-05-10T03:20:42;31.50;;;21.50;;
22924;SDS011;11628;51.072;3.712;2023-05-10T03:23:13;27.73;;;21.15;;
22924;SDS011;11628;51.072;3.712;2023-05-10T03:25:46;28.90;;;21.13;;
22924;SDS011;11628;51.072;3.712;2023-05-10T03:28:14;30.20;;;20.77;;
22924;SDS011;11628;51.072;3.712;2023-05-10T03:30:42;32.50;;;21.73;;
22924;SDS011;11628;51.072;3.712;2023-05-10T03:33:08;29.77;;;21.08;;
22924;SDS011;11628;51.072;3.712;2023-05-10T03:35:34;31.48;;;21.63;;
22924;SDS011;11628;51.072;3.712;2023-05-10T03:38:00;32.08;;;23.23;;
22924;SDS011;11628;51.072;3.712;2023-05-10T03:40:26;31.23;;;23.17;;
22924;SDS011;11628;51.072;3.712;2023-05-10T03:42:54;30.27;;;22.58;;
22924;SDS011;11628;51.072;3.712;2023-05-10T03:45:20;35.75;;;24.50;;
22924;SDS011;11628;51.072;3.712;2023-05-10T03:47:46;35.25;;;22.85;;
22924;SDS011;11628;51.072;3.712;2023-05-10T03:50:11;37.20;;;23.92;;
22924;SDS011;11628;51.072;3.712;2023-05-10T03:52:37;33.55;;;23.77;;
22924;SDS011;11628;51.072;3.712;2023-05-10T03:55:04;30.63;;;22.35;;
22924;SDS011;11628;51.072;3.712;2023-05-10T03:57:31;33.47;;;24.38;;
22924;SDS011;11628;51.072;3.712;2023-05-10T03:59:57;34.30;;;23.85;;
22924;SDS011;11628;51.072;3.712;2023-05-10T04:02:22;32.45;;;24.13;;
22924;SDS011;11628;51.072;3.712;2023-05-10T04:04:48;34.03;;;24.63;;
22924;SDS011;11628;51.072;3.712;2023-05-10T04:07:14;34.33;;;24.52;;
22924;SDS011;11628;51.072;3.712;2023-05-10T04:09:40;34.22;;;23.90;;
22924;SDS011;11628;51.072;3.712;2023-05-10T04:12:06;35.38;;;26.23;;
22924;SDS011;11628;51.072;3.712;2023-05-10T04:14:31;38.35;;;26.08;;
22924;SDS011;11628;51.072;3.712;2023-05-10T04:16:57;35.17;;;26.33;;
22924;SDS011;11628;51.072;3.712;2023-05-10T04:19:23;35.13;;;26.55;;
22924;SDS011;11628;51.072;3.712;2023-05-10T04:21:48;40.08;;;27.70;;
22924;SDS011;11628;51.072;3.712;2023-05-10T04:24:14;35.60;;;26.33;;
22924;SDS011;11628;51.072;3.712;2023-05-10T04:26:40;45.20;;;29.83;;
22924;SDS011;11628;51.072;3.712;2023-05-10T04:29:06;38.92;;;28.35;;
22924;SDS011;11628;51.072;3.712;2023-05-10T04:31:31;39.72;;;27.70;;
22924;SDS011;11628;51.072;3.712;2023-05-10T04:33:57;39.78;;;28.58;;
22924;SDS011;11628;51.072;3.712;2023-05-10T04:36:23;40.28;;;29.73;;
22924;SDS011;11628;51.072;3.712;2023-05-10T04:38:48;42.17;;;28.75;;
22924;SDS011;11628;51.072;3.712;2023-05-10T04:41:14;40.42;;;28.92;;
22924;SDS011;11628;51.072;3.712;2023-05-10T04:43:40;36.80;;;27.73;;
22924;SDS011;11628;51.072;3.712;2023-05-10T04:46:06;41.45;;;28.33;;
22924;SDS011;11628;51.072;3.712;2023-05-10T04:48:32;40.10;;;29.67;;
22924;SDS011;11628;51.072;3.712;2023-05-10T04:50:58;45.35;;;29.80;;
22924;SDS011;11628;51.072;3.712;2023-05-10T04:53:24;39.50;;;29.73;;
22924;SDS011;11628;51.072;3.712;2023-05-10T04:55:50;40.15;;;28.35;;
22924;SDS011;11628;51.072;3.712;2023-05-10T04:58:16;40.40;;;27.77;;
22924;SDS011;11628;51.072;3.712;2023-05-10T05:00:41;42.88;;;29.98;;
22924;SDS011;11628;51.072;3.712;2023-05-10T05:03:07;46.00;;;32.08;;
22924;SDS011;11628;51.072;3.712;2023-05-10T05:05:33;42.45;;;29.85;;
22924;SDS011;11628;51.072;3.712;2023-05-10T05:07:58;43.78;;;30.90;;
22924;SDS011;11628;51.072;3.712;2023-05-10T05:10:24;42.65;;;31.13;;
22924;SDS011;11628;51.072;3.712;2023-05-10T05:12:50;45.25;;;31.63;;
22924;SDS011;11628;51.072;3.712;2023-05-10T05:15:16;45.42;;;31.00;;
22924;SDS011;11628;51.072;3.712;2023-05-10T05:17:42;40.67;;;30.42;;
22924;SDS011;11628;51.072;3.712;2023-05-10T05:20:08;45.92;;;31.42;;
22924;SDS011;11628;51.072;3.712;2023-05-10T05:22:35;41.05;;;29.30;;
22924;SDS011;11628;51.072;3.712;2023-05-10T05:25:02;43.63;;;32.30;;
22924;SDS011;11628;51.072;3.712;2023-05-10T05:27:28;45.92;;;31.30;;
22924;SDS011;11628;51.072;3.712;2023-05-10T05:29:58;43.97;;;31.27;;
22924;SDS011;11628;51.072;3.712;2023-05-10T05:32:24;46.90;;;32.92;;
22924;SDS011;11628;51.072;3.712;2023-05-10T05:34:50;45.53;;;32.45;;
22924;SDS011;11628;51.072;3.712;2023-05-10T05:37:17;46.00;;;32.72;;
22924;SDS011;11628;51.072;3.712;2023-05-10T05:39:44;44.05;;;32.75;;
22924;SDS011;11628;51.072;3.712;2023-05-10T05:42:10;45.72;;;30.90;;
22924;SDS011;11628;51.072;3.712;2023-05-10T05:44:36;44.50;;;32.28;;
22924;SDS011;11628;51.072;3.712;2023-05-10T05:47:02;46.63;;;32.33;;
22924;SDS011;11628;51.072;3.712;2023-05-10T05:49:28;44.78;;;32.33;;
22924;SDS011;11628;51.072;3.712;2023-05-10T05:51:54;43.95;;;31.02;;
22924;SDS011;11628;51.072;3.712;2023-05-10T05:54:23;44.15;;;31.13;;
22924;SDS011;11628;51.072;3.712;2023-05-10T05:56:48;43.22;;;30.55;;
22924;SDS011;11628;51.072;3.712;2023-05-10T05:59:14;38.03;;;28.42;;
22924;SDS011;11628;51.072;3.712;2023-05-10T06:01:40;36.92;;;28.50;;
22924;SDS011;11628;51.072;3.712;2023-05-10T06:04:05;36.10;;;28.55;;
22924;SDS011;11628;51.072;3.712;2023-05-10T06:06:31;42.30;;;29.77;;
22924;SDS011;11628;51.072;3.712;2023-05-10T06:08:57;33.55;;;26.45;;
22924;SDS011;11628;51.072;3.712;2023-05-10T06:11:23;35.45;;;26.23;;
22924;SDS011;11628;51.072;3.712;2023-05-10T06:13:49;37.58;;;26.23;;
22924;SDS011;11628;51.072;3.712;2023-05-10T06:16:15;35.20;;;26.45;;
22924;SDS011;11628;51.072;3.712;2023-05-10T06:18:41;36.05;;;27.73;;
22924;SDS011;11628;51.072;3.712;2023-05-10T06:21:09;34.17;;;26.52;;
22924;SDS011;11628;51.072;3.712;2023-05-10T06:23:35;35.78;;;26.98;;
22924;SDS011;11628;51.072;3.712;2023-05-10T06:26:00;34.70;;;27.00;;
22924;SDS011;11628;51.072;3.712;2023-05-10T06:28:26;39.17;;;30.25;;
22924;SDS011;11628;51.072;3.712;2023-05-10T06:30:52;31.60;;;24.83;;
22924;SDS011;11628;51.072;3.712;2023-05-10T06:33:17;29.13;;;23.65;;
22924;SDS011;11628;51.072;3.712;2023-05-10T06:35:43;30.30;;;22.20;;
22924;SDS011;11628;51.072;3.712;2023-05-10T06:38:09;27.23;;;21.85;;
22924;SDS011;11628;51.072;3.712;2023-05-10T06:40:34;27.75;;;20.25;;
22924;SDS011;11628;51.072;3.712;2023-05-10T06:43:01;24.50;;;20.65;;
22924;SDS011;11628;51.072;3.712;2023-05-10T06:45:26;23.58;;;19.70;;
22924;SDS011;11628;51.072;3.712;2023-05-10T06:47:52;24.13;;;18.80;;
22924;SDS011;11628;51.072;3.712;2023-05-10T06:50:18;20.92;;;17.73;;
22924;SDS011;11628;51.072;3.712;2023-05-10T06:52:44;17.95;;;16.00;;
22924;SDS011;11628;51.072;3.712;2023-05-10T06:55:09;17.63;;;15.05;;
22924;SDS011;11628;51.072;3.712;2023-05-10T06:57:35;16.38;;;13.45;;
22924;SDS011;11628;51.072;3.712;2023-05-10T07:00:01;15.13;;;12.20;;
22924;SDS011;11628;51.072;3.712;2023-05-10T07:02:30;15.23;;;12.50;;
22924;SDS011;11628;51.072;3.712;2023-05-10T07:04:56;17.60;;;14.65;;
22924;SDS011;11628;51.072;3.712;2023-05-10T07:07:22;15.38;;;12.75;;
22924;SDS011;11628;51.072;3.712;2023-05-10T07:09:48;14.57;;;13.07;;
22924;SDS011;11628;51.072;3.712;2023-05-10T07:12:14;15.77;;;13.57;;
22924;SDS011;11628;51.072;3.712;2023-05-10T07:14:40;26.02;;;21.42;;
22924;SDS011;11628;51.072;3.712;2023-05-10T07:17:06;34.90;;;26.98;;
22924;SDS011;11628;51.072;3.712;2023-05-10T07:19:34;33.72;;;27.73;;
22924;SDS011;11628;51.072;3.712;2023-05-10T07:22:00;32.85;;;26.60;;
22924;SDS011;11628;51.072;3.712;2023-05-10T07:24:26;36.10;;;28.17;;
22924;SDS011;11628;51.072;3.712;2023-05-10T07:26:52;37.60;;;30.13;;
22924;SDS011;11628;51.072;3.712;2023-05-10T07:29:18;40.42;;;30.00;;
22924;SDS011;11628;51.072;3.712;2023-05-10T07:31:44;39.70;;;30.02;;
22924;SDS011;11628;51.072;3.712;2023-05-10T07:34:09;38.72;;;30.25;;
22924;SDS011;11628;51.072;3.712;2023-05-10T07:36:35;39.58;;;30.00;;
22924;SDS011;11628;51.072;3.712;2023-05-10T07:39:01;39.05;;;29.10;;
22924;SDS011;11628;51.072;3.712;2023-05-10T07:41:27;42.72;;;28.23;;
22924;SDS011;11628;51.072;3.712;2023-05-10T07:43:52;34.40;;;27.55;;
22924;SDS011;11628;51.072;3.712;2023-05-10T07:46:18;40.25;;;28.27;;
22924;SDS011;11628;51.072;3.712;2023-05-10T07:48:46;41.92;;;28.70;;
22924;SDS011;11628;51.072;3.712;2023-05-10T07:51:12;36.58;;;27.33;;
22924;SDS011;11628;51.072;3.712;2023-05-10T07:53:38;39.92;;;27.10;;
22924;SDS011;11628;51.072;3.712;2023-05-10T07:59:09;35.83;;;28.52;;
22924;SDS011;11628;51.072;3.712;2023-05-10T08:01:35;34.78;;;26.77;;
22924;SDS011;11628;51.072;3.712;2023-05-10T08:04:01;37.30;;;26.65;;
22924;SDS011;11628;51.072;3.712;2023-05-10T08:06:27;35.53;;;24.65;;
22924;SDS011;11628;51.072;3.712;2023-05-10T08:08:55;33.33;;;25.15;;
22924;SDS011;11628;51.072;3.712;2023-05-10T08:11:21;32.72;;;24.80;;
22924;SDS011;11628;51.072;3.712;2023-05-10T08:13:47;31.08;;;23.73;;
22924;SDS011;11628;51.072;3.712;2023-05-10T08:16:14;32.35;;;24.67;;
22924;SDS011;11628;51.072;3.712;2023-05-10T08:18:40;33.10;;;24.77;;
22924;SDS011;11628;51.072;3.712;2023-05-10T08:21:06;29.73;;;22.02;;
22924;SDS011;11628;51.072;3.712;2023-05-10T08:23:32;25.52;;;18.67;;
22924;SDS011;11628;51.072;3.712;2023-05-10T08:25:58;22.77;;;16.98;;
22924;SDS011;11628;51.072;3.712;2023-05-10T08:28:24;25.73;;;18.13;;
22924;SDS011;11628;51.072;3.712;2023-05-10T08:30:50;24.38;;;18.33;;
22924;SDS011;11628;51.072;3.712;2023-05-10T08:33:17;26.48;;;20.88;;
22924;SDS011;11628;51.072;3.712;2023-05-10T08:35:43;31.88;;;21.83;;
22924;SDS011;11628;51.072;3.712;2023-05-10T08:38:09;30.65;;;23.52;;
22924;SDS011;11628;51.072;3.712;2023-05-10T08:40:36;28.85;;;23.48;;
22924;SDS011;11628;51.072;3.712;2023-05-10T08:45:32;28.80;;;22.70;;
22924;SDS011;11628;51.072;3.712;2023-05-10T08:48:02;31.45;;;22.67;;
22924;SDS011;11628;51.072;3.712;2023-05-10T08:50:31;26.92;;;21.40;;
22924;SDS011;11628;51.072;3.712;2023-05-10T08:53:00;28.70;;;20.55;;
22924;SDS011;11628;51.072;3.712;2023-05-10T08:55:28;31.30;;;22.20;;
22924;SDS011;11628;51.072;3.712;2023-05-10T08:57:53;35.13;;;22.98;;
22924;SDS011;11628;51.072;3.712;2023-05-10T09:00:20;30.13;;;22.20;;
22924;SDS011;11628;51.072;3.712;2023-05-10T09:02:49;30.85;;;23.60;;
22924;SDS011;11628;51.072;3.712;2023-05-10T09:05:15;29.65;;;23.15;;
22924;SDS011;11628;51.072;3.712;2023-05-10T09:07:41;33.80;;;23.33;;
22924;SDS011;11628;51.072;3.712;2023-05-10T09:10:07;42.67;;;23.85;;
22924;SDS011;11628;51.072;3.712;2023-05-10T09:12:34;33.70;;;23.45;;
22924;SDS011;11628;51.072;3.712;2023-05-10T09:15:00;33.28;;;22.48;;
22924;SDS011;11628;51.072;3.712;2023-05-10T09:17:27;28.13;;;20.83;;
22924;SDS011;11628;51.072;3.712;2023-05-10T09:20:01;26.88;;;20.65;;
22924;SDS011;11628;51.072;3.712;2023-05-10T09:22:29;26.75;;;20.73;;
22924;SDS011;11628;51.072;3.712;2023-05-10T09:25:09;26.77;;;20.67;;
22924;SDS011;11628;51.072;3.712;2023-05-10T09:27:37;31.52;;;20.42;;
22924;SDS011;11628;51.072;3.712;2023-05-10T09:30:07;27.58;;;20.83;;
22924;SDS011;11628;51.072;3.712;2023-05-10T09:32:43;26.05;;;19.98;;
22924;SDS011;11628;51.072;3.712;2023-05-10T09:35:18;25.73;;;19.10;;
22924;SDS011;11628;51.072;3.712;2023-05-10T09:37:54;28.08;;;19.83;;
22924;SDS011;11628;51.072;3.712;2023-05-10T09:40:22;25.33;;;20.42;;
22924;SDS011;11628;51.072;3.712;2023-05-10T09:43:08;24.92;;;19.27;;
22924;SDS011;11628;51.072;3.712;2023-05-10T09:45:35;24.98;;;19.50;;
22924;SDS011;11628;51.072;3.712;2023-05-10T09:48:02;25.42;;;18.70;;
22924;SDS011;11628;51.072;3.712;2023-05-10T09:50:29;28.85;;;20.52;;
22924;SDS011;11628;51.072;3.712;2023-05-10T09:52:56;24.02;;;19.05;;
22924;SDS011;11628;51.072;3.712;2023-05-10T09:55:26;28.10;;;19.58;;
22924;SDS011;11628;51.072;3.712;2023-05-10T09:58:06;22.92;;;17.10;;
22924;SDS011;11628;51.072;3.712;2023-05-10T10:00:44;21.00;;;16.55;;
22924;SDS011;11628;51.072;3.712;2023-05-10T10:03:13;19.95;;;16.13;;
22924;SDS011;11628;51.072;3.712;2023-05-10T10:05:45;20.00;;;14.77;;
22924;SDS011;11628;51.072;3.712;2023-05-10T10:08:12;19.52;;;14.70;;
22924;SDS011;11628;51.072;3.712;2023-05-10T10:10:39;16.20;;;14.32;;
22924;SDS011;11628;51.072;3.712;2023-05-10T10:13:06;15.98;;;14.13;;
22924;SDS011;11628;51.072;3.712;2023-05-10T10:15:32;19.33;;;14.50;;
22924;SDS011;11628;51.072;3.712;2023-05-10T10:17:59;15.88;;;13.95;;
22924;SDS011;11628;51.072;3.712;2023-05-10T10:20:25;14.70;;;13.13;;
22924;SDS011;11628;51.072;3.712;2023-05-10T10:22:52;17.10;;;13.48;;
22924;SDS011;11628;51.072;3.712;2023-05-10T10:25:19;15.73;;;12.68;;
22924;SDS011;11628;51.072;3.712;2023-05-10T10:27:55;16.60;;;12.30;;
22924;SDS011;11628;51.072;3.712;2023-05-10T10:30:49;15.82;;;11.15;;
22924;SDS011;11628;51.072;3.712;2023-05-10T10:35:53;13.90;;;12.40;;
22924;SDS011;11628;51.072;3.712;2023-05-10T10:38:20;14.85;;;12.32;;
22924;SDS011;11628;51.072;3.712;2023-05-10T10:40:46;15.95;;;13.75;;
22924;SDS011;11628;51.072;3.712;2023-05-10T10:43:25;17.55;;;14.18;;
22924;SDS011;11628;51.072;3.712;2023-05-10T10:48:40;14.70;;;12.85;;
22924;SDS011;11628;51.072;3.712;2023-05-10T10:51:12;17.60;;;13.73;;
22924;SDS011;11628;51.072;3.712;2023-05-10T10:53:39;17.10;;;13.13;;
22924;SDS011;11628;51.072;3.712;2023-05-10T10:56:12;21.63;;;14.55;;
22924;SDS011;11628;51.072;3.712;2023-05-10T10:58:40;22.33;;;16.60;;
22924;SDS011;11628;51.072;3.712;2023-05-10T11:01:10;21.17;;;16.50;;
22924;SDS011;11628;51.072;3.712;2023-05-10T11:03:36;20.02;;;17.15;;
22924;SDS011;11628;51.072;3.712;2023-05-10T11:06:02;24.33;;;17.55;;
22924;SDS011;11628;51.072;3.712;2023-05-10T11:08:32;23.00;;;16.85;;
22924;SDS011;11628;51.072;3.712;2023-05-10T11:13:27;19.98;;;17.80;;
22924;SDS011;11628;51.072;3.712;2023-05-10T11:18:52;27.88;;;19.77;;
22924;SDS011;11628;51.072;3.712;2023-05-10T11:21:27;23.17;;;19.42;;
22924;SDS011;11628;51.072;3.712;2023-05-10T11:23:54;25.25;;;20.88;;
22924;SDS011;11628;51.072;3.712;2023-05-10T11:26:22;26.63;;;21.40;;
22924;SDS011;11628;51.072;3.712;2023-05-10T11:28:51;28.92;;;23.05;;
22924;SDS011;11628;51.072;3.712;2023-05-10T11:31:24;24.50;;;21.23;;
22924;SDS011;11628;51.072;3.712;2023-05-10T11:33:52;26.23;;;22.85;;
22924;SDS011;11628;51.072;3.712;2023-05-10T11:38:52;26.27;;;23.35;;
22924;SDS011;11628;51.072;3.712;2023-05-10T11:41:19;26.40;;;22.08;;
22924;SDS011;11628;51.072;3.712;2023-05-10T11:43:49;26.40;;;23.67;;
22924;SDS011;11628;51.072;3.712;2023-05-10T11:46:18;26.35;;;23.60;;
22924;SDS011;11628;51.072;3.712;2023-05-10T11:48:45;27.60;;;23.35;;
22924;SDS011;11628;51.072;3.712;2023-05-10T11:51:14;25.92;;;23.08;;
22924;SDS011;11628;51.072;3.712;2023-05-10T11:53:40;24.80;;;22.15;;
22924;SDS011;11628;51.072;3.712;2023-05-10T11:56:06;24.27;;;21.73;;
22924;SDS011;11628;51.072;3.712;2023-05-10T11:58:33;28.88;;;22.50;;
22924;SDS011;11628;51.072;3.712;2023-05-10T12:00:59;24.27;;;21.70;;
22924;SDS011;11628;51.072;3.712;2023-05-10T12:03:25;25.92;;;21.55;;
22924;SDS011;11628;51.072;3.712;2023-05-10T12:05:52;25.27;;;21.50;;
22924;SDS011;11628;51.072;3.712;2023-05-10T12:08:22;24.52;;;20.42;;
22924;SDS011;11628;51.072;3.712;2023-05-10T12:10:52;25.45;;;21.35;;
22924;SDS011;11628;51.072;3.712;2023-05-10T12:13:18;23.60;;;20.95;;
22924;SDS011;11628;51.072;3.712;2023-05-10T12:15:46;23.50;;;20.80;;
22924;SDS011;11628;51.072;3.712;2023-05-10T12:18:12;23.48;;;20.75;;
22924;SDS011;11628;51.072;3.712;2023-05-10T12:20:39;22.60;;;20.20;;
22924;SDS011;11628;51.072;3.712;2023-05-10T12:23:05;24.17;;;20.92;;
22924;SDS011;11628;51.072;3.712;2023-05-10T12:25:33;23.30;;;20.40;;
22924;SDS011;11628;51.072;3.712;2023-05-10T12:28:02;23.48;;;20.77;;
22924;SDS011;11628;51.072;3.712;2023-05-10T12:30:30;24.67;;;21.10;;
22924;SDS011;11628;51.072;3.712;2023-05-10T12:33:10;23.85;;;19.80;;
22924;SDS011;11628;51.072;3.712;2023-05-10T12:35:44;23.90;;;20.38;;
22924;SDS011;11628;51.072;3.712;2023-05-10T12:41:10;25.90;;;21.73;;
22924;SDS011;11628;51.072;3.712;2023-05-10T12:43:37;26.27;;;22.33;;
22924;SDS011;11628;51.072;3.712;2023-05-10T12:46:07;33.67;;;24.98;;
22924;SDS011;11628;51.072;3.712;2023-05-10T12:48:38;30.85;;;25.60;;
22924;SDS011;11628;51.072;3.712;2023-05-10T12:51:05;33.08;;;24.58;;
22924;SDS011;11628;51.072;3.712;2023-05-10T12:53:34;28.73;;;22.38;;
22924;SDS011;11628;51.072;3.712;2023-05-10T12:56:00;32.70;;;26.02;;
22924;SDS011;11628;51.072;3.712;2023-05-10T12:58:26;33.97;;;25.55;;
22924;SDS011;11628;51.072;3.712;2023-05-10T13:00:51;32.53;;;26.60;;
22924;SDS011;11628;51.072;3.712;2023-05-10T13:03:18;30.48;;;25.67;;
22924;SDS011;11628;51.072;3.712;2023-05-10T13:05:43;34.08;;;28.55;;
22924;SDS011;11628;51.072;3.712;2023-05-10T13:08:09;38.53;;;30.63;;
22924;SDS011;11628;51.072;3.712;2023-05-10T13:10:35;36.30;;;28.17;;
22924;SDS011;11628;51.072;3.712;2023-05-10T13:13:00;35.08;;;27.88;;
22924;SDS011;11628;51.072;3.712;2023-05-10T13:15:26;39.97;;;28.38;;
22924;SDS011;11628;51.072;3.712;2023-05-10T13:17:53;37.65;;;29.40;;
22924;SDS011;11628;51.072;3.712;2023-05-10T13:20:18;52.05;;;43.70;;
22924;SDS011;11628;51.072;3.712;2023-05-10T13:22:44;43.45;;;31.80;;
22924;SDS011;11628;51.072;3.712;2023-05-10T13:25:10;38.78;;;30.67;;
22924;SDS011;11628;51.072;3.712;2023-05-10T13:27:37;39.58;;;29.30;;
22924;SDS011;11628;51.072;3.712;2023-05-10T13:30:04;42.83;;;30.80;;
22924;SDS011;11628;51.072;3.712;2023-05-10T13:32:30;43.03;;;31.13;;
22924;SDS011;11628;51.072;3.712;2023-05-10T13:34:56;39.47;;;28.40;;
22924;SDS011;11628;51.072;3.712;2023-05-10T13:37:23;40.47;;;28.33;;
22924;SDS011;11628;51.072;3.712;2023-05-10T13:39:49;38.72;;;28.10;;
22924;SDS011;11628;51.072;3.712;2023-05-10T13:42:14;39.35;;;29.33;;
22924;SDS011;11628;51.072;3.712;2023-05-10T13:44:40;35.20;;;27.52;;
22924;SDS011;11628;51.072;3.712;2023-05-10T13:47:06;37.65;;;28.35;;
22924;SDS011;11628;51.072;3.712;2023-05-10T13:49:32;39.13;;;29.60;;
22924;SDS011;11628;51.072;3.712;2023-05-10T13:51:58;37.95;;;28.13;;
22924;SDS011;11628;51.072;3.712;2023-05-10T13:54:26;33.97;;;26.75;;
22924;SDS011;11628;51.072;3.712;2023-05-10T13:56:54;41.05;;;28.45;;
22924;SDS011;11628;51.072;3.712;2023-05-10T13:59:20;39.13;;;27.63;;
22924;SDS011;11628;51.072;3.712;2023-05-10T14:01:45;37.58;;;29.15;;
22924;SDS011;11628;51.072;3.712;2023-05-10T14:04:11;38.95;;;28.60;;
22924;SDS011;11628;51.072;3.712;2023-05-10T14:06:37;42.67;;;30.42;;
22924;SDS011;11628;51.072;3.712;2023-05-10T14:09:03;41.92;;;30.42;;
22924;SDS011;11628;51.072;3.712;2023-05-10T14:11:28;42.53;;;31.95;;
22924;SDS011;11628;51.072;3.712;2023-05-10T14:13:55;43.55;;;30.30;;
22924;SDS011;11628;51.072;3.712;2023-05-10T14:16:21;38.83;;;29.55;;
22924;SDS011;11628;51.072;3.712;2023-05-10T14:18:47;37.03;;;29.60;;
22924;SDS011;11628;51.072;3.712;2023-05-10T14:21:12;35.20;;;27.70;;
22924;SDS011;11628;51.072;3.712;2023-05-10T14:23:38;38.70;;;27.48;;
22924;SDS011;11628;51.072;3.712;2023-05-10T14:26:04;35.53;;;26.70;;
22924;SDS011;11628;51.072;3.712;2023-05-10T14:28:30;40.80;;;28.15;;
22924;SDS011;11628;51.072;3.712;2023-05-10T14:30:56;33.00;;;27.70;;
22924;SDS011;11628;51.072;3.712;2023-05-10T14:33:22;31.92;;;25.38;;
22924;SDS011;11628;51.072;3.712;2023-05-10T14:35:47;33.78;;;24.73;;
22924;SDS011;11628;51.072;3.712;2023-05-10T14:38:14;34.88;;;24.17;;
22924;SDS011;11628;51.072;3.712;2023-05-10T14:40:40;28.75;;;22.02;;
22924;SDS011;11628;51.072;3.712;2023-05-10T14:43:05;29.20;;;22.08;;
22924;SDS011;11628;51.072;3.712;2023-05-10T14:45:31;29.67;;;23.38;;
22924;SDS011;11628;51.072;3.712;2023-05-10T14:47:57;27.85;;;20.88;;
22924;SDS011;11628;51.072;3.712;2023-05-10T14:50:24;27.38;;;18.35;;